createdAt,value
2022-08-29T00:00:59.725Z,99.90
2022-08-29T00:03:28.042Z,99.90
2022-08-29T00:08:24.880Z,99.90
2022-08-29T00:10:51.883Z,99.90
2022-08-29T00:13:19.357Z,99.90
2022-08-29T00:18:16.091Z,99.90
2022-08-29T00:20:44.796Z,99.90
2022-08-29T00:23:12.068Z,99.90
2022-08-29T00:25:39.492Z,99.90
2022-08-29T00:30:35.459Z,99.90
2022-08-29T00:33:02.622Z,99.90
2022-08-29T00:35:35.251Z,99.90
2022-08-29T00:38:03.867Z,99.90
2022-08-29T00:40:54.242Z,99.90
2022-08-29T00:43:35.579Z,99.90
2022-08-29T00:46:40.553Z,99.90
2022-08-29T00:49:13.747Z,99.90
2022-08-29T00:51:41.315Z,99.90
2022-08-29T00:54:10.462Z,99.90
2022-08-29T00:56:39.447Z,99.90
2022-08-29T00:59:36.973Z,99.90
2022-08-29T01:02:05.649Z,99.90
2022-08-29T01:04:33.642Z,99.90
2022-08-29T01:07:01.142Z,99.90
2022-08-29T01:09:29.776Z,99.90
2022-08-29T01:12:29.352Z,99.90
2022-08-29T01:15:00.996Z,99.90
2022-08-29T01:17:44.682Z,99.90
2022-08-29T01:20:25.685Z,99.90
2022-08-29T01:23:29.639Z,99.90
2022-08-29T01:25:57.809Z,99.90
2022-08-29T01:28:34.098Z,99.90
2022-08-29T01:31:50.154Z,99.90
2022-08-29T01:36:34.853Z,99.90
2022-08-29T01:39:01.900Z,99.90
2022-08-29T01:41:28.955Z,99.90
2022-08-29T01:43:56.828Z,99.90
2022-08-29T01:46:30.875Z,99.90
2022-08-29T01:48:58.534Z,99.90
2022-08-29T01:51:25.722Z,99.90
2022-08-29T01:53:53.316Z,99.90
2022-08-29T01:56:26.361Z,99.90
2022-08-29T01:58:55.266Z,99.90
2022-08-29T02:01:26.293Z,99.90
2022-08-29T02:06:21.868Z,99.90
2022-08-29T02:08:48.717Z,99.90
2022-08-29T02:11:17.417Z,99.90
2022-08-29T02:13:49.869Z,99.90
2022-08-29T02:18:44.864Z,99.90
2022-08-29T02:21:17.232Z,99.90
2022-08-29T02:23:44.503Z,99.90
2022-08-29T02:26:11.402Z,99.90
2022-08-29T02:31:06.451Z,99.90
2022-08-29T02:33:33.526Z,99.90
2022-08-29T02:36:01.997Z,99.90
2022-08-29T02:38:29.623Z,99.90
2022-08-29T02:43:24.827Z,99.90
2022-08-29T02:45:52.378Z,99.90
2022-08-29T02:48:19.584Z,99.90
2022-08-29T02:50:52.222Z,99.90
2022-08-29T02:53:22.472Z,99.90
2022-08-29T02:55:50.343Z,99.90
2022-08-29T02:58:17.610Z,99.90
2022-08-29T03:00:44.904Z,99.90
2022-08-29T03:03:12.043Z,99.90
2022-08-29T03:05:39.688Z,99.90
2022-08-29T03:08:09.065Z,99.90
2022-08-29T03:10:36.958Z,99.90
2022-08-29T03:13:05.414Z,99.90
2022-08-29T03:15:32.760Z,99.90
2022-08-29T03:17:59.716Z,99.90
2022-08-29T03:20:27.062Z,99.90
2022-08-29T03:22:54.853Z,99.90
2022-08-29T03:25:23.545Z,99.90
2022-08-29T03:27:50.620Z,99.90
2022-08-29T03:30:18.243Z,99.90
2022-08-29T03:32:46.001Z,99.90
2022-08-29T03:35:13.761Z,99.90
2022-08-29T03:37:41.290Z,99.90
2022-08-29T03:40:09.576Z,99.90
2022-08-29T03:42:37.066Z,99.90
2022-08-29T03:45:06.470Z,99.90
2022-08-29T03:47:33.791Z,99.90
2022-08-29T03:50:01.110Z,99.90
2022-08-29T03:52:28.376Z,99.90
2022-08-29T04:02:21.307Z,99.90
2022-08-29T04:05:08.241Z,99.90
2022-08-29T04:07:39.082Z,99.90
2022-08-29T04:10:08.284Z,99.90
2022-08-29T04:12:35.224Z,99.90
2022-08-29T04:15:02.237Z,99.90
2022-08-29T04:17:29.343Z,99.90
2022-08-29T04:24:51.304Z,99.90
2022-08-29T04:27:18.171Z,99.90
2022-08-29T04:29:48.416Z,99.90
2022-08-29T04:32:18.358Z,99.90
2022-08-29T04:34:45.227Z,99.90
2022-08-29T04:37:12.145Z,99.90
2022-08-29T04:39:39.233Z,99.90
2022-08-29T04:42:06.522Z,99.90
2022-08-29T04:44:34.532Z,99.90
2022-08-29T04:47:01.493Z,99.90
2022-08-29T04:49:28.621Z,99.90
2022-08-29T04:54:23.439Z,99.90
2022-08-29T04:56:50.341Z,99.90
2022-08-29T04:59:18.370Z,99.90
2022-08-29T05:01:47.824Z,99.90
2022-08-29T05:04:14.810Z,99.90
2022-08-29T05:06:41.987Z,99.90
2022-08-29T05:09:09.005Z,99.90
2022-08-29T05:14:03.242Z,99.90
2022-08-29T05:16:31.262Z,99.90
2022-08-29T05:18:59.553Z,99.90
2022-08-29T05:21:35.174Z,99.90
2022-08-29T05:24:05.606Z,99.90
2022-08-29T05:26:36.016Z,99.90
2022-08-29T05:31:37.075Z,99.90
2022-08-29T05:34:14.039Z,99.90
2022-08-29T05:41:46.759Z,99.90
2022-08-29T05:44:13.669Z,99.90
2022-08-29T05:54:07.691Z,99.90
2022-08-29T05:56:34.968Z,99.90
2022-08-29T05:59:02.045Z,99.90
2022-08-29T06:01:32.662Z,99.90
2022-08-29T06:04:00.951Z,99.90
2022-08-29T06:06:29.186Z,99.90
2022-08-29T06:08:57.302Z,99.90
2022-08-29T06:11:28.212Z,99.90
2022-08-29T06:13:55.849Z,99.90
2022-08-29T06:16:24.839Z,99.90
2022-08-29T06:18:52.035Z,99.90
2022-08-29T06:21:19.910Z,99.90
2022-08-29T06:23:47.874Z,99.90
2022-08-29T06:26:16.049Z,99.90
2022-08-29T06:28:46.270Z,99.90
2022-08-29T06:31:17.661Z,99.90
2022-08-29T06:33:44.615Z,99.90
2022-08-29T06:36:12.580Z,99.90
2022-08-29T06:38:39.827Z,99.90
2022-08-29T06:41:13.041Z,99.90
2022-08-29T06:46:08.800Z,99.90
2022-08-29T06:48:36.255Z,99.90
2022-08-29T06:51:04.149Z,99.90
2022-08-29T06:53:31.967Z,99.90
2022-08-29T06:56:05.544Z,99.90
2022-08-29T06:58:33.261Z,99.90
2022-08-29T07:01:06.943Z,99.90
2022-08-29T07:06:01.400Z,99.90
2022-08-29T07:10:55.698Z,99.90
2022-08-29T07:13:22.588Z,99.90
2022-08-29T07:15:49.624Z,99.90
2022-08-29T07:18:16.741Z,99.90
2022-08-29T07:23:11.339Z,99.90
2022-08-29T07:25:39.042Z,99.90
2022-08-29T07:28:06.626Z,99.90
2022-08-29T07:30:34.983Z,99.90
2022-08-29T07:33:02.056Z,99.90
2022-08-29T07:35:30.920Z,99.90
2022-08-29T07:38:01.782Z,99.90
2022-08-29T07:42:56.633Z,99.90
2022-08-29T07:45:23.547Z,99.90
2022-08-29T07:47:50.440Z,99.90
2022-08-29T07:50:17.378Z,99.90
2022-08-29T07:52:44.464Z,99.90
2022-08-29T07:55:12.077Z,99.90
2022-08-29T08:00:12.219Z,99.90
2022-08-29T08:02:39.325Z,99.90
2022-08-29T08:05:07.284Z,99.90
2022-08-29T08:10:04.000Z,99.90
2022-08-29T08:12:30.963Z,99.90
2022-08-29T08:14:58.423Z,99.90
2022-08-29T08:19:52.954Z,99.90
2022-08-29T08:24:48.610Z,99.90
2022-08-29T08:29:44.332Z,99.90
2022-08-29T08:32:11.208Z,99.90
2022-08-29T08:34:38.108Z,99.90
2022-08-29T08:37:09.155Z,99.90
2022-08-29T08:39:37.091Z,99.90
2022-08-29T08:42:31.697Z,99.90
2022-08-29T08:45:26.866Z,99.90
2022-08-29T08:48:01.120Z,99.90
2022-08-29T08:50:43.574Z,99.90
2022-08-29T08:53:19.806Z,99.90
2022-08-29T08:55:58.101Z,99.90
2022-08-29T08:58:34.212Z,99.90
2022-08-29T09:01:14.604Z,99.90
2022-08-29T09:03:56.834Z,99.90
2022-08-29T09:06:45.430Z,99.90
2022-08-29T09:09:18.589Z,99.90
2022-08-29T09:12:14.408Z,99.90
2022-08-29T09:15:03.528Z,99.90
2022-08-29T09:17:53.385Z,99.90
2022-08-29T09:20:24.889Z,99.90
2022-08-29T09:23:06.041Z,99.90
2022-08-29T09:28:07.014Z,99.90
2022-08-29T09:30:36.717Z,99.90
2022-08-29T09:33:09.179Z,99.90
2022-08-29T09:35:44.984Z,99.90
2022-08-29T09:38:17.654Z,99.90
2022-08-29T09:40:53.438Z,99.90
2022-08-29T09:43:42.825Z,99.90
2022-08-29T09:46:25.092Z,99.90
2022-08-29T09:48:58.086Z,99.90
2022-08-29T09:51:31.043Z,99.90
2022-08-29T09:54:10.263Z,99.90
2022-08-29T09:56:40.912Z,99.90
2022-08-29T09:59:39.739Z,99.90
2022-08-29T10:02:43.936Z,99.90
2022-08-29T10:05:35.099Z,99.90
2022-08-29T10:08:05.610Z,99.90
2022-08-29T10:10:36.298Z,99.90
2022-08-29T10:15:59.558Z,99.90
2022-08-29T10:18:50.087Z,99.90
2022-08-29T10:21:32.692Z,99.90
2022-08-29T10:24:21.109Z,99.90
2022-08-29T10:27:07.179Z,99.90
2022-08-29T10:29:39.844Z,99.90
2022-08-29T10:32:30.663Z,99.90
2022-08-29T10:35:15.973Z,99.90
2022-08-29T10:38:12.735Z,99.90
2022-08-29T10:43:20.118Z,99.90
2022-08-29T10:45:56.098Z,99.90
2022-08-29T10:49:21.204Z,99.90
2022-08-29T10:51:53.549Z,99.90
2022-08-29T10:54:29.174Z,99.90
2022-08-29T10:56:56.166Z,99.90
2022-08-29T10:59:58.146Z,99.90
2022-08-29T11:02:38.925Z,99.90
2022-08-29T11:05:18.803Z,99.90
2022-08-29T11:08:32.000Z,99.90
2022-08-29T11:10:59.177Z,99.90
2022-08-29T11:13:40.707Z,99.90
2022-08-29T11:16:17.484Z,99.90
2022-08-29T11:18:58.269Z,99.90
2022-08-29T11:21:40.665Z,99.90
2022-08-29T11:24:10.237Z,99.90
2022-08-29T11:29:33.579Z,99.90
2022-08-29T11:32:36.309Z,99.90
2022-08-29T11:35:20.669Z,99.90
2022-08-29T11:38:05.977Z,99.00
2022-08-29T11:40:48.243Z,98.20
2022-08-29T11:43:20.832Z,97.50
2022-08-29T11:46:01.706Z,97.40
2022-08-29T11:48:41.871Z,95.20
2022-08-29T11:51:29.597Z,95.00
2022-08-29T11:53:57.171Z,94.00
2022-08-29T11:56:28.742Z,90.80
2022-08-29T11:58:59.145Z,90.00
2022-08-29T12:01:25.978Z,90.80
2022-08-29T12:03:55.472Z,90.20
2022-08-29T12:06:40.835Z,90.70
2022-08-29T12:09:14.367Z,91.00
2022-08-29T12:12:02.853Z,91.80
2022-08-29T12:14:37.875Z,92.20
2022-08-29T12:17:08.279Z,92.80
2022-08-29T12:19:50.022Z,90.10
2022-08-29T12:22:48.148Z,90.10
2022-08-29T12:25:41.434Z,89.50
2022-08-29T12:28:32.313Z,89.80
2022-08-29T12:30:59.442Z,90.40
2022-08-29T12:33:43.306Z,92.60
2022-08-29T12:36:52.524Z,92.60
2022-08-29T12:39:58.555Z,92.70
2022-08-29T12:43:02.850Z,93.40
2022-08-29T12:45:31.987Z,94.00
2022-08-29T12:48:04.834Z,94.00
2022-08-29T12:50:35.839Z,94.30
2022-08-29T12:53:02.748Z,93.10
2022-08-29T12:55:37.000Z,92.70
2022-08-29T13:00:32.928Z,91.70
2022-08-29T13:02:59.830Z,90.40
2022-08-29T13:05:29.634Z,86.50
2022-08-29T13:07:59.709Z,90.50
2022-08-29T13:10:28.217Z,87.90
2022-08-29T13:13:06.489Z,90.00
2022-08-29T13:15:33.677Z,88.60
2022-08-29T13:18:01.460Z,84.10
2022-08-29T13:20:46.184Z,81.40
2022-08-29T13:26:09.411Z,81.10
2022-08-29T13:28:51.052Z,77.30
2022-08-29T13:36:31.113Z,75.30
2022-08-29T13:39:41.094Z,73.00
2022-08-29T13:42:18.846Z,75.60
2022-08-29T13:47:25.219Z,70.60
2022-08-29T13:49:56.569Z,71.10
2022-08-29T13:52:24.005Z,73.50
2022-08-29T13:54:56.526Z,73.90
2022-08-29T13:57:26.393Z,69.30
2022-08-29T13:59:53.438Z,71.90
2022-08-29T14:02:20.701Z,72.40
2022-08-29T14:07:28.067Z,70.70
2022-08-29T14:09:55.342Z,71.60
2022-08-29T14:12:33.427Z,70.50
2022-08-29T14:15:06.793Z,71.50
2022-08-29T14:17:36.951Z,69.60
2022-08-29T14:20:04.997Z,73.10
2022-08-29T14:22:31.901Z,69.90
2022-08-29T14:24:58.849Z,70.20
2022-08-29T14:27:25.953Z,71.90
2022-08-29T14:29:53.221Z,73.00
2022-08-29T14:34:50.913Z,72.50
2022-08-29T14:37:20.126Z,72.50
2022-08-29T14:39:49.990Z,70.10
2022-08-29T14:42:18.186Z,70.70
2022-08-29T14:44:45.384Z,71.20
2022-08-29T14:47:12.753Z,68.80
2022-08-29T14:52:07.266Z,70.10
2022-08-29T14:54:34.326Z,70.40
2022-08-29T14:57:01.242Z,70.40
2022-08-29T14:59:28.211Z,71.10
2022-08-29T15:01:55.813Z,71.60
2022-08-29T15:04:34.936Z,71.10
2022-08-29T15:07:05.339Z,71.20
2022-08-29T15:11:59.691Z,70.60
2022-08-29T15:14:26.675Z,71.80
2022-08-29T15:16:53.526Z,71.00
2022-08-29T15:24:36.647Z,71.20
2022-08-29T15:27:04.355Z,71.20
2022-08-29T15:29:31.636Z,70.50
2022-08-29T15:31:58.683Z,72.00
2022-08-29T15:36:54.891Z,71.70
2022-08-29T15:39:22.605Z,71.50
2022-08-29T15:49:19.916Z,72.10
2022-08-29T15:51:48.407Z,73.80
2022-08-29T15:54:15.860Z,74.00
2022-08-29T15:56:43.137Z,75.20
2022-08-29T15:59:13.098Z,75.60
2022-08-29T16:01:45.794Z,76.30
2022-08-29T16:04:14.024Z,76.80
2022-08-29T16:06:41.424Z,77.20
2022-08-29T16:09:15.040Z,78.20
2022-08-29T16:11:46.228Z,77.50
2022-08-29T16:17:02.137Z,79.30
2022-08-29T16:19:29.809Z,79.20
2022-08-29T16:21:59.963Z,79.20
2022-08-29T16:24:29.884Z,80.00
2022-08-29T16:29:26.476Z,81.70
2022-08-29T16:31:58.039Z,81.90
2022-08-29T16:34:26.533Z,82.50
2022-08-29T16:36:59.320Z,82.70
2022-08-29T16:39:27.296Z,83.90
2022-08-29T16:41:54.422Z,83.70
2022-08-29T16:44:22.322Z,83.10
2022-08-29T16:54:12.176Z,84.60
2022-08-29T16:56:39.858Z,84.10
2022-08-29T17:01:44.708Z,85.40
2022-08-29T17:04:24.047Z,86.00
2022-08-29T17:06:52.458Z,85.70
2022-08-29T17:09:21.722Z,86.90
2022-08-29T17:11:49.051Z,87.80
2022-08-29T17:14:16.924Z,88.10
2022-08-29T17:16:46.215Z,89.10
2022-08-29T17:19:15.188Z,90.30
2022-08-29T17:21:43.329Z,90.30
2022-08-29T17:24:11.266Z,90.50
2022-08-29T17:26:42.740Z,90.20
2022-08-29T17:29:11.062Z,90.00
2022-08-29T17:31:38.631Z,90.50
2022-08-29T17:34:07.532Z,90.90
2022-08-29T17:36:36.688Z,91.20
2022-08-29T17:39:05.494Z,91.60
2022-08-29T17:41:34.876Z,91.80
2022-08-29T17:44:02.093Z,91.70
2022-08-29T17:46:29.690Z,92.30
2022-08-29T17:48:56.893Z,92.30
2022-08-29T17:51:24.156Z,92.50
2022-08-29T17:56:25.124Z,93.10
2022-08-29T17:58:52.028Z,93.80
2022-08-29T18:01:19.108Z,94.20
2022-08-29T18:06:15.432Z,94.30
2022-08-29T18:08:45.881Z,94.40
2022-08-29T18:11:15.882Z,94.60
2022-08-29T18:16:10.729Z,96.30
2022-08-29T18:18:38.934Z,96.00
2022-08-29T18:23:33.594Z,96.00
2022-08-29T18:28:28.311Z,96.90
2022-08-29T18:30:55.944Z,97.00
2022-08-29T18:33:23.210Z,97.20
2022-08-29T18:35:52.078Z,97.00
2022-08-29T18:38:19.490Z,97.20
2022-08-29T18:43:21.509Z,97.30
2022-08-29T18:45:49.893Z,97.20
2022-08-29T18:50:44.830Z,97.00
2022-08-29T18:53:19.710Z,97.40
2022-08-29T18:55:50.981Z,97.00
2022-08-29T18:58:21.130Z,97.10
2022-08-29T19:00:48.085Z,97.30
2022-08-29T19:05:48.478Z,96.80
2022-08-29T19:08:21.085Z,97.20
2022-08-29T19:10:48.823Z,97.10
2022-08-29T19:13:17.573Z,96.90
2022-08-29T19:15:47.310Z,97.10
2022-08-29T19:18:15.828Z,96.90
2022-08-29T19:21:01.793Z,97.00
2022-08-29T19:23:41.111Z,97.20
2022-08-29T19:26:12.128Z,96.90
2022-08-29T19:31:14.980Z,97.20
2022-08-29T19:33:43.394Z,97.00
2022-08-29T19:36:10.434Z,97.40
2022-08-29T19:41:05.617Z,97.30
2022-08-29T19:43:33.806Z,97.30
2022-08-29T19:46:02.533Z,97.10
2022-08-29T19:48:29.605Z,97.70
2022-08-29T19:50:57.186Z,97.70
2022-08-29T19:58:22.880Z,97.00
2022-08-29T20:00:58.153Z,96.50
2022-08-29T20:03:25.414Z,96.70
2022-08-29T20:10:50.184Z,96.40
2022-08-29T20:13:17.528Z,96.20
2022-08-29T20:15:45.076Z,96.30
2022-08-29T20:18:12.974Z,96.50
2022-08-29T20:23:08.065Z,96.20
2022-08-29T20:25:35.491Z,96.50
2022-08-29T20:28:04.075Z,96.20
2022-08-29T20:30:33.017Z,96.20
2022-08-29T20:35:46.315Z,96.40
2022-08-29T20:40:46.702Z,95.90
2022-08-29T20:43:16.967Z,96.10
2022-08-29T20:45:44.149Z,95.90
2022-08-29T20:48:12.509Z,95.70
2022-08-29T20:50:39.954Z,95.80
2022-08-29T20:53:07.587Z,95.70
2022-08-29T20:58:02.156Z,96.30
2022-08-29T21:00:29.109Z,96.30
2022-08-29T21:03:14.917Z,96.10
2022-08-29T21:08:20.022Z,96.30
2022-08-29T21:10:47.914Z,96.40
2022-08-29T21:15:44.214Z,96.60
2022-08-29T21:18:13.463Z,96.90
2022-08-29T21:20:54.012Z,96.80
2022-08-29T21:23:23.007Z,96.90
2022-08-29T21:25:58.878Z,97.10
2022-08-29T21:28:27.775Z,97.10
2022-08-29T21:30:54.944Z,97.10
2022-08-29T21:33:22.809Z,97.40
2022-08-29T21:35:50.339Z,97.50
2022-08-29T21:38:18.472Z,97.70
2022-08-29T21:40:50.416Z,97.50
2022-08-29T21:43:19.370Z,97.90
2022-08-29T21:45:47.245Z,97.60
2022-08-29T21:50:41.521Z,97.90
2022-08-29T21:53:15.194Z,98.10
2022-08-29T21:55:42.451Z,98.20
2022-08-29T21:58:09.471Z,98.50
2022-08-29T22:00:37.084Z,98.30
2022-08-29T22:03:06.849Z,98.30
2022-08-29T22:05:34.503Z,98.70
2022-08-29T22:08:04.329Z,98.70
2022-08-29T22:10:35.283Z,98.90
2022-08-29T22:13:04.173Z,99.40
2022-08-29T22:15:49.676Z,99.60
2022-08-29T22:18:17.092Z,99.90
2022-08-29T22:20:46.732Z,99.90
2022-08-29T22:23:18.855Z,99.90
2022-08-29T22:25:47.630Z,99.90
2022-08-29T22:30:42.177Z,99.90
2022-08-29T22:33:10.714Z,99.90
2022-08-29T22:43:07.696Z,99.90
2022-08-29T22:45:34.552Z,99.90
2022-08-29T22:52:57.906Z,99.90
2022-08-29T22:57:51.672Z,99.90
2022-08-29T23:00:21.547Z,99.90
2022-08-29T23:05:17.227Z,99.90
2022-08-29T23:07:44.307Z,99.90
2022-08-29T23:10:13.019Z,99.90
2022-08-29T23:12:40.876Z,99.90
2022-08-29T23:15:12.479Z,99.90
2022-08-29T23:20:09.394Z,99.90
2022-08-29T23:25:06.965Z,99.90
2022-08-29T23:27:34.482Z,99.90
2022-08-29T23:32:29.041Z,99.90
2022-08-29T23:34:56.203Z,99.90
2022-08-29T23:37:23.488Z,99.90
2022-08-29T23:39:50.967Z,99.90
2022-08-29T23:42:18.302Z,99.90
2022-08-29T23:44:45.880Z,99.90
2022-08-29T23:47:15.671Z,99.90
2022-08-29T23:49:42.773Z,99.90
2022-08-29T23:57:04.876Z,99.90
2022-08-29T23:59:51.725Z,99.90
